createdAt,value
2018-03-20T00:01:35.090Z,87
2018-03-20T00:06:35.051Z,87.1
2018-03-20T00:11:35.086Z,87.1
2018-03-20T00:16:35.097Z,87.4
2018-03-20T00:21:35.075Z,86.9
2018-03-20T00:26:35.347Z,86.7
2018-03-20T00:31:35.242Z,86.7
2018-03-20T00:36:35.324Z,86.1
2018-03-20T00:41:35.332Z,86.2
2018-03-20T00:46:35.353Z,86.5
2018-03-20T00:51:35.094Z,86.4
2018-03-20T00:56:35.310Z,86.7
2018-03-20T01:01:35.244Z,87.3
2018-03-20T01:06:35.145Z,86.5
2018-03-20T01:11:35.324Z,86.7
2018-03-20T01:16:35.118Z,86.6
2018-03-20T01:21:35.276Z,87.4
2018-03-20T01:26:35.112Z,88
2018-03-20T01:31:35.115Z,86.6
2018-03-20T01:36:35.128Z,87.5
2018-03-20T01:41:35.150Z,87.2
2018-03-20T01:46:35.145Z,86.9
2018-03-20T01:51:35.078Z,87
2018-03-20T01:56:35.130Z,86.6
2018-03-20T02:01:35.429Z,86.8
2018-03-20T02:06:36.304Z,86.7
2018-03-20T02:11:35.356Z,86.6
2018-03-20T02:16:35.151Z,86.1
2018-03-20T02:21:35.102Z,86.2
2018-03-20T02:26:35.232Z,86.5
2018-03-20T02:31:35.367Z,86.7
2018-03-20T02:36:35.126Z,86.7
2018-03-20T02:41:35.103Z,87
2018-03-20T02:46:35.169Z,86.6
2018-03-20T02:51:35.381Z,87.4
2018-03-20T02:56:35.159Z,86.9
2018-03-20T03:01:35.170Z,86.5
2018-03-20T03:06:35.380Z,86.5
2018-03-20T03:11:35.209Z,86.6
2018-03-20T03:16:35.206Z,87
2018-03-20T03:21:35.423Z,86.3
2018-03-20T03:26:35.424Z,86.5
2018-03-20T03:31:35.353Z,86.7
2018-03-20T03:36:35.574Z,86.6
2018-03-20T03:41:35.619Z,87.3
2018-03-20T03:46:35.700Z,86.7
2018-03-20T03:51:35.428Z,86.7
2018-03-20T03:56:35.644Z,86.9
2018-03-20T04:01:35.566Z,86.7
2018-03-20T04:06:35.590Z,87.1
2018-03-20T04:11:35.616Z,86.7
2018-03-20T04:16:35.649Z,87.1
2018-03-20T04:21:35.397Z,87.4
2018-03-20T04:26:35.438Z,87.5
2018-03-20T04:31:40.450Z,87.9
2018-03-20T04:36:45.577Z,87.4
2018-03-20T04:41:40.459Z,87.7
2018-03-20T04:46:40.672Z,86.9
2018-03-20T04:51:40.710Z,87.5
2018-03-20T04:56:40.472Z,87.8
2018-03-20T05:01:40.690Z,87.5
2018-03-20T05:06:40.490Z,88.3
2018-03-20T05:11:40.486Z,88.3
2018-03-20T05:16:40.702Z,88.6
2018-03-20T05:21:40.492Z,88.5
2018-03-20T05:26:40.466Z,88.4
2018-03-20T05:31:40.657Z,87.3
2018-03-20T05:36:40.504Z,87.2
2018-03-20T05:41:40.731Z,86.7
2018-03-20T05:46:40.902Z,86.8
2018-03-20T05:51:40.793Z,86.8
2018-03-20T05:56:40.885Z,86.6
2018-03-20T06:01:40.857Z,86.8
2018-03-20T06:06:41.105Z,86.3
2018-03-20T06:11:41.050Z,85.3
2018-03-20T06:16:40.935Z,84.8
2018-03-20T06:21:40.925Z,84.7
2018-03-20T06:26:41.135Z,83.9
2018-03-20T06:31:41.075Z,84.9
2018-03-20T06:36:41.095Z,84
2018-03-20T06:41:41.128Z,83.4
2018-03-20T06:46:41.192Z,83.1
2018-03-20T06:51:41.148Z,83.3
2018-03-20T06:56:41.083Z,82.5
2018-03-20T07:01:41.264Z,82.7
2018-03-20T07:06:41.127Z,82.6
2018-03-20T07:11:41.334Z,82.1
2018-03-20T07:16:41.162Z,81.5
2018-03-20T07:21:41.313Z,81
2018-03-20T07:26:41.201Z,80.3
2018-03-20T07:31:41.392Z,80.6
2018-03-20T07:36:41.425Z,80
2018-03-20T07:41:41.190Z,79.5
2018-03-20T07:46:42.395Z,79.3
2018-03-20T07:51:41.235Z,77.7
2018-03-20T07:56:41.332Z,77.3
2018-03-20T08:01:41.539Z,76.4
2018-03-20T08:06:41.353Z,76.3
2018-03-20T08:11:41.535Z,76.2
2018-03-20T08:16:41.566Z,75.7
2018-03-20T08:21:41.497Z,74.8
2018-03-20T08:26:41.308Z,74.5
2018-03-20T08:31:41.357Z,72.9
2018-03-20T08:36:41.562Z,73.5
2018-03-20T08:41:41.562Z,71.6
2018-03-20T08:46:41.619Z,70.8
2018-03-20T08:51:41.387Z,70.8
2018-03-20T08:56:41.537Z,68.6
2018-03-20T09:01:41.582Z,67.9
2018-03-20T09:06:41.608Z,68.3
2018-03-20T09:11:41.543Z,66.6
2018-03-20T09:16:41.610Z,66.6
2018-03-20T09:21:41.397Z,66.1
2018-03-20T09:26:44.048Z,65.5
2018-03-20T09:31:49.155Z,65.1
2018-03-20T09:36:44.181Z,64.6
2018-03-20T09:41:44.069Z,64.5
2018-03-20T09:46:44.249Z,63.6
2018-03-20T09:51:44.276Z,66.3
2018-03-20T09:56:44.066Z,65
2018-03-20T10:01:44.263Z,67
2018-03-20T10:06:44.267Z,65.6
2018-03-20T10:11:44.360Z,64.5
2018-03-20T10:16:44.222Z,64.9
2018-03-20T10:21:44.062Z,63.6
2018-03-20T10:26:44.067Z,64.8
2018-03-20T10:31:44.220Z,65
2018-03-20T10:36:44.085Z,65
2018-03-20T10:41:44.328Z,64.1
2018-03-20T10:46:44.228Z,63
2018-03-20T10:51:44.255Z,62.6
2018-03-20T10:56:44.100Z,62.1
2018-03-20T11:01:44.096Z,61.5
2018-03-20T11:06:44.103Z,62.2
2018-03-20T11:11:44.092Z,62.4
2018-03-20T11:16:44.098Z,62.2
2018-03-20T11:21:44.141Z,61.9
2018-03-20T11:26:44.329Z,62.5
2018-03-20T11:31:44.091Z,62.2
2018-03-20T11:36:44.122Z,62.9
2018-03-20T11:41:44.084Z,62.9
2018-03-20T11:46:44.110Z,63.1
2018-03-20T11:51:44.124Z,63.1
2018-03-20T11:56:44.121Z,62.3
2018-03-20T12:01:44.140Z,62
2018-03-20T12:06:44.103Z,62.8
2018-03-20T12:11:44.143Z,63.5
2018-03-20T12:16:44.318Z,62.7
2018-03-20T12:21:44.074Z,63.1
2018-03-20T12:26:44.139Z,63
2018-03-20T12:31:44.317Z,62.3
2018-03-20T12:36:44.428Z,64
2018-03-20T12:41:44.260Z,64.9
2018-03-20T12:46:44.422Z,63.8
2018-03-20T12:51:44.271Z,64.8
2018-03-20T12:56:44.280Z,64.1
2018-03-20T13:01:44.261Z,65.6
2018-03-20T13:06:44.453Z,63.8
2018-03-20T13:11:44.589Z,65.7
2018-03-20T13:16:44.421Z,66.1
2018-03-20T13:21:44.450Z,65.2
2018-03-20T13:26:44.696Z,65.9
2018-03-20T13:31:44.469Z,65.2
2018-03-20T13:36:44.470Z,66.1
2018-03-20T13:41:44.721Z,65.6
2018-03-20T13:46:44.730Z,66.6
2018-03-20T13:51:44.899Z,67.1
2018-03-20T13:56:44.935Z,67.5
2018-03-20T14:01:45.096Z,68
2018-03-20T14:06:45.075Z,69
2018-03-20T14:11:44.735Z,67.8
2018-03-20T14:16:45.618Z,67.7
2018-03-20T14:21:50.609Z,67.4
2018-03-20T14:26:45.321Z,67.5
2018-03-20T14:31:45.622Z,67.4
2018-03-20T14:36:45.347Z,67.6
2018-03-20T14:41:45.403Z,66.1
2018-03-20T14:46:45.344Z,66.4
2018-03-20T14:51:45.369Z,66.1
2018-03-20T14:56:45.392Z,65.3
2018-03-20T15:01:45.532Z,64.9
2018-03-20T15:06:45.639Z,64.5
2018-03-20T15:11:45.433Z,64.8
2018-03-20T15:16:45.639Z,63.2
2018-03-20T15:21:45.566Z,63.2
2018-03-20T15:26:45.636Z,63.3
2018-03-20T15:31:45.660Z,63
2018-03-20T15:36:45.424Z,62.8
2018-03-20T15:41:45.599Z,62.5
2018-03-20T15:46:45.465Z,60.6
2018-03-20T15:51:45.560Z,62.4
2018-03-20T15:56:45.444Z,62.5
2018-03-20T16:01:45.679Z,62.4
2018-03-20T16:06:45.696Z,62.8
2018-03-20T16:11:45.618Z,63.9
2018-03-20T16:16:45.535Z,64.1
2018-03-20T16:21:45.463Z,65.8
2018-03-20T16:26:45.659Z,66.4
2018-03-20T16:31:45.456Z,66.4
2018-03-20T16:36:45.472Z,67.2
2018-03-20T16:41:45.417Z,67.1
2018-03-20T16:46:45.651Z,67.6
2018-03-20T16:51:45.681Z,67.3
2018-03-20T16:56:45.473Z,66.9
2018-03-20T17:01:45.645Z,67.1
2018-03-20T17:06:45.699Z,67.5
2018-03-20T17:11:45.719Z,68
2018-03-20T17:16:45.626Z,68.2
2018-03-20T17:21:45.720Z,67.7
2018-03-20T17:26:45.643Z,67.9
2018-03-20T17:31:45.637Z,67.9
2018-03-20T17:36:45.890Z,68.9
2018-03-20T17:41:45.761Z,68.5
2018-03-20T17:46:45.704Z,68.2
2018-03-20T17:51:45.516Z,68.2
2018-03-20T17:56:45.774Z,68.3
2018-03-20T18:01:45.500Z,68.6
2018-03-20T18:06:45.529Z,69.5
2018-03-20T18:11:45.585Z,68.7
2018-03-20T18:16:45.554Z,68.6
2018-03-20T18:21:45.661Z,68.3
2018-03-20T18:26:45.684Z,68
2018-03-20T18:31:45.661Z,68
2018-03-20T18:36:45.528Z,68.1
2018-03-20T18:41:45.522Z,67.6
2018-03-20T18:46:45.773Z,67.5
2018-03-20T18:51:45.660Z,67.5
2018-03-20T18:56:45.915Z,67.4
2018-03-20T19:01:45.576Z,66.8
2018-03-20T19:06:50.221Z,67
2018-03-20T19:11:55.347Z,66.2
2018-03-20T19:16:50.229Z,67.3
2018-03-20T19:21:50.381Z,66.8
2018-03-20T19:26:50.470Z,66.7
2018-03-20T19:31:50.449Z,66.6
2018-03-20T19:36:50.554Z,66.6
2018-03-20T19:41:50.633Z,66.9
2018-03-20T19:46:50.619Z,67.3
2018-03-20T19:51:50.646Z,66.9
2018-03-20T19:56:50.622Z,67.3
2018-03-20T20:01:50.606Z,67.1
2018-03-20T20:06:50.723Z,67.2
2018-03-20T20:11:50.683Z,68.7
2018-03-20T20:16:50.659Z,68.2
2018-03-20T20:21:51.015Z,68.9
2018-03-20T20:26:50.990Z,68.6
2018-03-20T20:31:50.844Z,68.8
2018-03-20T20:36:50.835Z,69.2
2018-03-20T20:41:50.864Z,70
2018-03-20T20:46:50.804Z,70.1
2018-03-20T20:51:50.835Z,70.3
2018-03-20T20:56:51.391Z,69.3
2018-03-20T21:01:52.052Z,69.5
2018-03-20T21:06:50.974Z,69.7
2018-03-20T21:11:51.036Z,70.4
2018-03-20T21:16:50.985Z,69.2
2018-03-20T21:21:50.979Z,69.3
2018-03-20T21:26:50.805Z,69.9
2018-03-20T21:31:50.874Z,69.5
2018-03-20T21:36:51.125Z,69.5
2018-03-20T21:41:51.004Z,69.8
2018-03-20T21:46:50.974Z,70.1
2018-03-20T21:51:51.105Z,70
2018-03-20T21:56:53.555Z,69.7
2018-03-20T22:01:54.166Z,70.8
2018-03-20T22:06:54.430Z,70.4
2018-03-20T22:11:54.332Z,70.8
2018-03-20T22:16:53.971Z,70.6
2018-03-20T22:21:53.954Z,70.8
2018-03-20T22:26:54.458Z,70
2018-03-20T22:31:54.318Z,69.6
2018-03-20T22:36:53.884Z,69.7
2018-03-20T22:41:54.413Z,70.1
2018-03-20T22:46:54.408Z,70.5
2018-03-20T22:51:50.980Z,69.6
2018-03-20T22:56:51.023Z,69.8
2018-03-20T23:01:50.957Z,71
2018-03-20T23:06:50.988Z,70.3
2018-03-20T23:11:50.988Z,71.2
2018-03-20T23:16:51.008Z,70.2
2018-03-20T23:21:51.003Z,69.8
2018-03-20T23:26:51.684Z,69.5
2018-03-20T23:31:51.034Z,69.5
2018-03-20T23:36:50.952Z,69.6
2018-03-20T23:41:51.008Z,69.9
2018-03-20T23:46:50.998Z,69.9
2018-03-20T23:51:51.064Z,70.1
2018-03-20T23:56:55.410Z,69.9
